createdAt,value
2022-10-22T00:00:44.122Z,99.90
2022-10-22T00:01:46.189Z,99.90
2022-10-22T00:02:48.369Z,99.90
2022-10-22T00:03:50.387Z,99.90
2022-10-22T00:04:53.690Z,99.90
2022-10-22T00:05:55.494Z,99.90
2022-10-22T00:06:57.312Z,99.90
2022-10-22T00:07:59.108Z,99.90
2022-10-22T00:09:01.638Z,99.90
2022-10-22T00:10:06.190Z,99.90
2022-10-22T00:11:10.769Z,99.90
2022-10-22T00:12:14.779Z,99.90
2022-10-22T00:13:17.003Z,99.90
2022-10-22T00:14:19.433Z,99.90
2022-10-22T00:15:21.830Z,99.90
2022-10-22T00:16:23.770Z,99.90
2022-10-22T00:17:25.849Z,99.90
2022-10-22T00:18:27.855Z,99.90
2022-10-22T00:19:30.152Z,99.90
2022-10-22T00:20:32.080Z,99.90
2022-10-22T00:21:34.058Z,99.90
2022-10-22T00:22:36.057Z,99.90
2022-10-22T00:23:42.206Z,99.90
2022-10-22T00:24:44.224Z,99.90
2022-10-22T00:25:46.009Z,99.90
2022-10-22T00:26:48.243Z,99.90
2022-10-22T00:27:50.041Z,99.90
2022-10-22T00:28:51.992Z,99.90
2022-10-22T00:29:53.779Z,99.90
2022-10-22T00:30:57.855Z,99.90
2022-10-22T00:31:59.645Z,99.90
2022-10-22T00:33:01.732Z,99.90
2022-10-22T00:34:03.802Z,99.90
2022-10-22T00:35:06.660Z,99.90
2022-10-22T00:36:08.904Z,99.90
2022-10-22T00:37:10.877Z,99.90
2022-10-22T00:38:12.814Z,99.90
2022-10-22T00:39:16.597Z,99.90
2022-10-22T00:40:18.571Z,99.90
2022-10-22T00:41:20.626Z,99.90
2022-10-22T00:42:26.138Z,99.90
2022-10-22T00:43:28.523Z,99.90
2022-10-22T00:45:07.648Z,99.90
2022-10-22T00:46:09.399Z,99.90
2022-10-22T00:47:11.408Z,99.90
2022-10-22T00:48:23.115Z,99.90
2022-10-22T00:49:24.942Z,99.90
2022-10-22T00:51:05.101Z,99.90
2022-10-22T00:52:07.324Z,99.90
2022-10-22T00:53:16.664Z,99.90
2022-10-22T00:54:18.511Z,99.90
2022-10-22T00:55:22.395Z,99.90
2022-10-22T00:56:24.571Z,99.90
2022-10-22T00:57:27.563Z,99.90
2022-10-22T00:58:33.751Z,99.90
2022-10-22T00:59:36.617Z,99.90
2022-10-22T01:00:38.935Z,99.90
2022-10-22T01:01:40.740Z,99.90
2022-10-22T01:02:43.045Z,99.90
2022-10-22T01:03:45.108Z,99.90
2022-10-22T01:04:47.134Z,99.90
2022-10-22T01:06:00.886Z,99.90
2022-10-22T01:07:02.864Z,99.90
2022-10-22T01:08:05.630Z,99.90
2022-10-22T01:09:28.565Z,99.90
2022-10-22T01:10:39.166Z,99.90
2022-10-22T01:11:53.987Z,99.90
2022-10-22T01:13:14.904Z,99.90
2022-10-22T01:14:29.513Z,99.90
2022-10-22T01:15:57.462Z,99.90
2022-10-22T01:17:03.096Z,99.90
2022-10-22T01:18:29.866Z,99.90
2022-10-22T01:19:40.926Z,99.90
2022-10-22T01:21:14.221Z,99.90
2022-10-22T01:22:22.647Z,99.90
2022-10-22T01:23:50.743Z,99.90
2022-10-22T01:25:12.723Z,99.90
2022-10-22T01:26:44.225Z,99.90
2022-10-22T01:27:58.149Z,99.90
2022-10-22T01:29:20.670Z,99.90
2022-10-22T01:30:23.603Z,99.90
2022-10-22T01:32:48.274Z,99.90
2022-10-22T01:33:53.301Z,99.90
2022-10-22T01:35:02.243Z,99.90
2022-10-22T01:36:05.139Z,99.90
2022-10-22T01:37:08.470Z,99.90
2022-10-22T01:38:15.319Z,99.90
2022-10-22T01:39:18.037Z,99.90
2022-10-22T01:40:20.798Z,99.90
2022-10-22T01:41:22.831Z,99.90
2022-10-22T01:42:24.801Z,99.90
2022-10-22T01:43:26.743Z,99.90
2022-10-22T01:44:33.904Z,99.90
2022-10-22T01:46:02.290Z,99.90
2022-10-22T01:47:04.276Z,99.90
2022-10-22T01:48:27.706Z,99.90
2022-10-22T01:50:03.669Z,99.90
2022-10-22T01:51:18.609Z,99.90
2022-10-22T01:52:54.132Z,99.90
2022-10-22T01:54:37.045Z,99.90
2022-10-22T01:55:48.891Z,99.90
2022-10-22T01:57:06.236Z,99.90
2022-10-22T01:58:19.740Z,99.90
2022-10-22T01:59:33.595Z,99.90
2022-10-22T02:00:40.309Z,99.90
2022-10-22T02:01:52.668Z,99.90
2022-10-22T02:03:13.720Z,99.90
2022-10-22T02:04:29.907Z,99.90
2022-10-22T02:05:41.085Z,99.90
2022-10-22T02:06:44.438Z,99.90
2022-10-22T02:08:09.458Z,99.90
2022-10-22T02:09:14.495Z,99.90
2022-10-22T02:10:19.295Z,99.90
2022-10-22T02:11:21.471Z,99.90
2022-10-22T02:12:25.655Z,99.90
2022-10-22T02:13:50.474Z,99.90
2022-10-22T02:14:54.048Z,99.90
2022-10-22T02:15:57.988Z,99.90
2022-10-22T02:17:01.289Z,99.90
2022-10-22T02:18:04.808Z,99.90
2022-10-22T02:19:15.897Z,99.90
2022-10-22T02:20:27.338Z,99.90
2022-10-22T02:21:29.695Z,99.90
2022-10-22T02:22:31.857Z,99.90
2022-10-22T02:23:33.820Z,99.90
2022-10-22T02:24:36.074Z,99.90
2022-10-22T02:25:42.104Z,99.90
2022-10-22T02:26:51.354Z,99.90
2022-10-22T02:28:11.725Z,99.90
2022-10-22T02:29:20.679Z,99.90
2022-10-22T02:30:23.233Z,99.90
2022-10-22T02:31:29.998Z,99.90
2022-10-22T02:32:39.306Z,99.90
2022-10-22T02:33:48.624Z,99.90
2022-10-22T02:34:52.008Z,99.90
2022-10-22T02:35:55.443Z,99.90
2022-10-22T02:36:58.851Z,99.90
2022-10-22T02:38:02.374Z,99.90
2022-10-22T02:39:05.851Z,99.90
2022-10-22T02:40:08.739Z,99.90
2022-10-22T02:41:11.162Z,99.90
2022-10-22T02:42:13.494Z,99.90
2022-10-22T02:43:15.374Z,99.90
2022-10-22T02:44:21.845Z,99.90
2022-10-22T02:45:24.313Z,99.90
2022-10-22T02:46:26.476Z,99.90
2022-10-22T02:47:28.277Z,99.90
2022-10-22T02:48:30.109Z,99.90
2022-10-22T02:49:31.896Z,99.90
2022-10-22T02:50:33.891Z,99.90
2022-10-22T02:51:35.776Z,99.90
2022-10-22T02:52:38.960Z,99.90
2022-10-22T02:53:41.169Z,99.90
2022-10-22T02:54:43.160Z,99.90
2022-10-22T02:55:45.154Z,99.90
2022-10-22T02:56:47.023Z,99.90
2022-10-22T02:57:49.019Z,99.90
2022-10-22T02:58:50.879Z,99.90
2022-10-22T02:59:52.690Z,99.90
2022-10-22T03:00:55.852Z,99.90
2022-10-22T03:01:58.090Z,99.90
2022-10-22T03:03:00.094Z,99.90
2022-10-22T03:04:02.241Z,99.90
2022-10-22T03:05:05.086Z,99.90
2022-10-22T03:06:07.538Z,99.90
2022-10-22T03:07:09.804Z,99.90
2022-10-22T03:08:11.948Z,99.90
2022-10-22T03:09:13.920Z,99.90
2022-10-22T03:10:16.067Z,99.90
2022-10-22T03:11:18.042Z,99.90
2022-10-22T03:12:19.926Z,99.90
2022-10-22T03:13:21.879Z,99.90
2022-10-22T03:14:23.908Z,99.90
2022-10-22T03:16:27.987Z,99.90
2022-10-22T03:17:30.049Z,99.90
2022-10-22T03:18:32.072Z,99.90
2022-10-22T03:19:34.117Z,99.90
2022-10-22T03:20:36.127Z,99.90
2022-10-22T03:21:48.910Z,99.90
2022-10-22T03:22:51.313Z,99.90
2022-10-22T03:23:54.118Z,99.90
2022-10-22T03:25:00.923Z,99.90
2022-10-22T03:26:03.092Z,99.90
2022-10-22T03:27:05.135Z,99.90
2022-10-22T03:28:09.852Z,99.90
2022-10-22T03:29:15.076Z,99.90
2022-10-22T03:30:17.289Z,99.90
2022-10-22T03:31:19.371Z,99.90
2022-10-22T03:32:21.212Z,99.90
2022-10-22T03:33:23.178Z,99.90
2022-10-22T03:34:25.254Z,99.90
2022-10-22T03:35:27.433Z,99.90
2022-10-22T03:36:29.238Z,99.90
2022-10-22T03:37:31.130Z,99.90
2022-10-22T03:38:34.731Z,99.90
2022-10-22T03:39:37.168Z,99.90
2022-10-22T03:40:39.786Z,99.90
2022-10-22T03:41:42.578Z,99.90
2022-10-22T03:42:44.774Z,99.90
2022-10-22T03:43:50.317Z,99.90
2022-10-22T03:44:52.724Z,99.90
2022-10-22T03:45:54.708Z,99.90
2022-10-22T03:47:00.088Z,99.90
2022-10-22T03:48:04.848Z,99.90
2022-10-22T03:49:06.815Z,99.90
2022-10-22T03:50:09.484Z,99.90
2022-10-22T03:51:11.523Z,99.90
2022-10-22T03:52:15.393Z,99.90
2022-10-22T03:53:17.349Z,99.90
2022-10-22T03:54:20.075Z,99.90
2022-10-22T03:55:22.078Z,99.90
2022-10-22T03:56:24.239Z,99.90
2022-10-22T03:57:26.032Z,99.90
2022-10-22T03:58:28.100Z,99.90
2022-10-22T03:59:34.004Z,99.90
2022-10-22T04:00:36.716Z,99.90
2022-10-22T04:01:39.403Z,99.90
2022-10-22T04:02:41.347Z,99.90
2022-10-22T04:03:43.138Z,99.90
2022-10-22T04:04:45.162Z,99.90
2022-10-22T04:05:47.337Z,99.90
2022-10-22T04:06:49.136Z,99.90
2022-10-22T04:07:50.909Z,99.90
2022-10-22T04:08:52.751Z,99.90
2022-10-22T04:09:54.608Z,99.90
2022-10-22T04:10:56.382Z,99.90
2022-10-22T04:11:58.643Z,99.90
2022-10-22T04:13:00.475Z,99.90
2022-10-22T04:14:02.400Z,99.90
2022-10-22T04:15:06.228Z,99.90
2022-10-22T04:16:13.716Z,99.90
2022-10-22T04:17:16.232Z,99.90
2022-10-22T04:18:22.426Z,99.90
2022-10-22T04:19:24.467Z,99.90
2022-10-22T04:20:26.512Z,99.90
2022-10-22T04:21:28.554Z,99.90
2022-10-22T04:22:30.528Z,99.90
2022-10-22T04:23:32.752Z,99.90
2022-10-22T04:24:34.758Z,99.90
2022-10-22T04:25:36.810Z,99.90
2022-10-22T04:26:38.816Z,99.90
2022-10-22T04:27:41.025Z,99.90
2022-10-22T04:28:44.994Z,99.90
2022-10-22T04:29:46.784Z,99.90
2022-10-22T04:30:48.558Z,99.90
2022-10-22T04:31:50.778Z,99.90
2022-10-22T04:32:52.586Z,99.90
2022-10-22T04:33:59.358Z,99.90
2022-10-22T04:35:01.423Z,99.90
2022-10-22T04:36:32.498Z,99.90
2022-10-22T04:37:34.440Z,99.90
2022-10-22T04:38:36.269Z,99.90
2022-10-22T04:39:38.204Z,99.90
2022-10-22T04:40:40.347Z,99.90
2022-10-22T04:41:42.506Z,99.90
2022-10-22T04:42:44.324Z,99.90
2022-10-22T04:43:46.982Z,99.90
2022-10-22T04:44:48.981Z,99.90
2022-10-22T04:45:51.315Z,99.90
2022-10-22T04:46:53.392Z,99.90
2022-10-22T04:47:55.327Z,99.90
2022-10-22T04:48:57.496Z,99.90
2022-10-22T04:49:59.542Z,99.90
2022-10-22T04:51:01.594Z,99.90
2022-10-22T04:52:03.714Z,99.90
2022-10-22T04:53:05.575Z,99.90
2022-10-22T04:54:07.661Z,99.90
2022-10-22T04:55:09.651Z,99.90
2022-10-22T04:56:34.636Z,99.90
2022-10-22T04:57:36.735Z,99.90
2022-10-22T04:58:39.806Z,99.90
2022-10-22T04:59:41.690Z,99.90
2022-10-22T05:00:43.549Z,99.90
2022-10-22T05:01:45.794Z,99.90
2022-10-22T05:02:51.162Z,99.90
2022-10-22T05:03:55.227Z,99.90
2022-10-22T05:04:57.346Z,99.90
2022-10-22T05:06:01.986Z,99.90
2022-10-22T05:07:04.047Z,99.90
2022-10-22T05:08:05.837Z,99.90
2022-10-22T05:09:11.760Z,99.90
2022-10-22T05:10:13.648Z,99.90
2022-10-22T05:11:21.098Z,99.90
2022-10-22T05:12:23.129Z,99.90
2022-10-22T05:13:25.230Z,99.90
2022-10-22T05:14:27.436Z,99.90
2022-10-22T05:15:29.285Z,99.90
2022-10-22T05:16:32.800Z,99.90
2022-10-22T05:17:37.647Z,99.90
2022-10-22T05:18:41.830Z,99.90
2022-10-22T05:19:43.821Z,99.90
2022-10-22T05:20:45.823Z,99.90
2022-10-22T05:21:47.856Z,99.90
2022-10-22T05:22:49.921Z,99.90
2022-10-22T05:23:52.368Z,99.90
2022-10-22T05:24:54.356Z,99.90
2022-10-22T05:25:56.186Z,99.90
2022-10-22T05:27:00.087Z,99.90
2022-10-22T05:28:02.339Z,99.90
2022-10-22T05:29:04.331Z,99.90
2022-10-22T05:30:07.042Z,99.90
2022-10-22T05:31:10.951Z,99.90
2022-10-22T05:32:13.183Z,99.90
2022-10-22T05:33:15.489Z,99.90
2022-10-22T05:34:17.529Z,99.90
2022-10-22T05:35:19.499Z,99.90
2022-10-22T05:36:22.561Z,99.90
2022-10-22T05:37:24.530Z,99.90
2022-10-22T05:38:26.710Z,99.90
2022-10-22T05:39:28.718Z,99.90
2022-10-22T05:40:31.480Z,99.90
2022-10-22T05:41:35.907Z,99.90
2022-10-22T05:42:38.107Z,99.90
2022-10-22T05:43:40.466Z,99.90
2022-10-22T05:44:42.547Z,99.90
2022-10-22T05:45:44.371Z,99.90
2022-10-22T05:46:46.444Z,99.90
2022-10-22T05:47:48.418Z,99.90
2022-10-22T05:49:02.347Z,99.90
2022-10-22T05:50:04.713Z,99.90
2022-10-22T05:51:09.075Z,99.90
2022-10-22T05:52:12.648Z,99.90
2022-10-22T05:53:14.553Z,99.90
2022-10-22T05:54:22.503Z,99.90
2022-10-22T05:55:24.322Z,99.90
2022-10-22T05:56:28.119Z,99.90
2022-10-22T05:57:30.458Z,99.90
2022-10-22T05:58:33.154Z,99.90
2022-10-22T05:59:35.260Z,99.90
2022-10-22T06:00:37.234Z,99.90
2022-10-22T06:01:40.404Z,99.90
2022-10-22T06:02:42.711Z,99.90
2022-10-22T06:03:45.953Z,99.90
2022-10-22T06:04:48.246Z,99.90
2022-10-22T06:05:50.136Z,99.90
2022-10-22T06:06:53.349Z,99.90
2022-10-22T06:07:58.132Z,99.90
2022-10-22T06:09:03.672Z,99.90
2022-10-22T06:10:06.165Z,99.90
2022-10-22T06:11:08.451Z,99.90
2022-10-22T06:12:12.900Z,99.90
2022-10-22T06:13:14.806Z,99.90
2022-10-22T06:14:17.267Z,99.90
2022-10-22T06:15:20.306Z,99.90
2022-10-22T06:16:22.122Z,99.90
2022-10-22T06:17:24.211Z,99.90
2022-10-22T06:18:26.240Z,99.90
2022-10-22T06:19:28.386Z,99.90
2022-10-22T06:20:30.188Z,99.90
2022-10-22T06:21:32.680Z,99.90
2022-10-22T06:22:34.715Z,99.90
2022-10-22T06:23:38.293Z,99.90
2022-10-22T06:24:41.683Z,99.90
2022-10-22T06:25:57.156Z,99.90
2022-10-22T06:26:59.139Z,99.90
2022-10-22T06:28:01.196Z,99.90
2022-10-22T06:29:03.825Z,99.90
2022-10-22T06:30:06.571Z,99.90
2022-10-22T06:31:08.652Z,99.90
2022-10-22T06:32:10.463Z,99.90
2022-10-22T06:33:12.461Z,99.90
2022-10-22T06:34:16.004Z,99.90
2022-10-22T06:35:17.904Z,99.90
2022-10-22T06:36:22.586Z,99.90
2022-10-22T06:37:24.405Z,99.90
2022-10-22T06:38:26.386Z,99.90
2022-10-22T06:39:28.560Z,99.90
2022-10-22T06:40:30.590Z,99.90
2022-10-22T06:41:32.699Z,99.90
2022-10-22T06:42:34.682Z,99.90
2022-10-22T06:43:36.898Z,99.90
2022-10-22T06:44:38.710Z,99.90
2022-10-22T06:45:40.840Z,99.90
2022-10-22T06:46:43.620Z,99.90
2022-10-22T06:47:46.950Z,99.90
2022-10-22T06:48:51.402Z,99.90
2022-10-22T06:49:53.417Z,99.90
2022-10-22T06:50:55.686Z,99.90
2022-10-22T06:51:57.488Z,99.90
2022-10-22T06:52:59.525Z,99.90
2022-10-22T06:54:01.608Z,99.90
2022-10-22T06:55:05.009Z,99.90
2022-10-22T06:56:08.874Z,99.90
2022-10-22T06:57:10.935Z,99.90
2022-10-22T06:58:13.150Z,99.90
2022-10-22T06:59:15.052Z,99.90
2022-10-22T07:00:17.014Z,99.90
2022-10-22T07:01:21.507Z,99.90
2022-10-22T07:02:23.358Z,99.90
2022-10-22T07:03:25.307Z,99.90
2022-10-22T07:04:27.321Z,99.90
2022-10-22T07:05:29.161Z,99.90
2022-10-22T07:06:31.213Z,99.90
2022-10-22T07:07:33.242Z,99.90
2022-10-22T07:08:36.055Z,99.90
2022-10-22T07:09:39.573Z,99.90
2022-10-22T07:10:41.620Z,99.90
2022-10-22T07:11:45.283Z,99.90
2022-10-22T07:12:47.226Z,99.90
2022-10-22T07:13:50.111Z,99.90
2022-10-22T07:14:52.122Z,99.90
2022-10-22T07:15:55.359Z,99.90
2022-10-22T07:16:57.358Z,99.90
2022-10-22T07:17:59.334Z,99.90
2022-10-22T07:19:02.636Z,99.90
2022-10-22T07:20:05.141Z,99.90
2022-10-22T07:21:08.964Z,99.90
2022-10-22T07:22:10.800Z,99.90
2022-10-22T07:23:12.760Z,99.90
2022-10-22T07:24:14.755Z,99.90
2022-10-22T07:25:16.861Z,99.90
2022-10-22T07:26:21.776Z,99.90
2022-10-22T07:27:23.789Z,99.90
2022-10-22T07:28:25.974Z,99.90
2022-10-22T07:29:28.642Z,99.90
2022-10-22T07:30:30.645Z,99.90
2022-10-22T07:31:32.967Z,99.90
2022-10-22T07:32:35.018Z,99.90
2022-10-22T07:33:38.365Z,99.90
2022-10-22T07:34:43.085Z,99.90
2022-10-22T07:35:45.820Z,99.90
2022-10-22T07:36:47.602Z,99.90
2022-10-22T07:37:49.589Z,99.90
2022-10-22T07:38:56.280Z,99.90
2022-10-22T07:40:01.495Z,99.90
2022-10-22T07:41:06.105Z,99.90
2022-10-22T07:42:08.154Z,99.90
2022-10-22T07:43:10.900Z,99.90
2022-10-22T07:44:12.875Z,99.90
2022-10-22T07:45:14.985Z,99.90
2022-10-22T07:46:16.964Z,99.90
2022-10-22T07:47:19.034Z,99.90
2022-10-22T07:48:21.107Z,99.90
2022-10-22T07:49:23.203Z,99.90
2022-10-22T07:50:25.222Z,99.90
2022-10-22T07:51:27.286Z,99.90
2022-10-22T07:52:29.138Z,99.90
2022-10-22T07:53:31.724Z,99.90
2022-10-22T07:54:34.249Z,99.90
2022-10-22T07:55:36.469Z,99.90
2022-10-22T07:56:38.571Z,99.90
2022-10-22T07:57:41.073Z,99.90
2022-10-22T07:58:43.078Z,99.90
2022-10-22T07:59:45.340Z,99.90
2022-10-22T08:00:48.048Z,99.90
2022-10-22T08:01:50.228Z,99.90
2022-10-22T08:02:52.677Z,99.90
2022-10-22T08:03:54.769Z,99.90
2022-10-22T08:04:57.174Z,99.90
2022-10-22T08:05:59.479Z,99.90
2022-10-22T08:07:01.620Z,99.90
2022-10-22T08:08:03.751Z,99.90
2022-10-22T08:09:06.005Z,99.90
2022-10-22T08:10:09.181Z,99.90
2022-10-22T08:11:11.673Z,99.90
2022-10-22T08:12:13.789Z,99.90
2022-10-22T08:13:16.131Z,99.90
2022-10-22T08:14:17.992Z,99.90
2022-10-22T08:15:20.019Z,99.90
2022-10-22T08:16:22.078Z,99.90
2022-10-22T08:17:24.122Z,99.90
2022-10-22T08:18:26.393Z,99.90
2022-10-22T08:19:30.006Z,99.90
2022-10-22T08:20:32.132Z,99.90
2022-10-22T08:21:33.962Z,99.90
2022-10-22T08:22:35.951Z,99.90
2022-10-22T08:23:38.095Z,99.90
2022-10-22T08:24:40.282Z,99.90
2022-10-22T08:25:42.293Z,99.90
2022-10-22T08:26:44.326Z,99.90
2022-10-22T08:27:46.865Z,99.90
2022-10-22T08:28:49.351Z,99.90
2022-10-22T08:29:51.307Z,99.90
2022-10-22T08:30:53.336Z,99.90
2022-10-22T08:31:55.665Z,99.90
2022-10-22T08:32:57.708Z,99.90
2022-10-22T08:33:59.780Z,99.90
2022-10-22T08:35:01.842Z,99.90
2022-10-22T08:36:04.260Z,99.90
2022-10-22T08:37:08.686Z,99.90
2022-10-22T08:38:11.076Z,99.90
2022-10-22T08:39:13.272Z,99.90
2022-10-22T08:40:24.499Z,99.90
2022-10-22T08:41:26.497Z,99.90
2022-10-22T08:42:50.527Z,99.90
2022-10-22T08:43:58.136Z,99.90
2022-10-22T08:45:18.968Z,99.90
2022-10-22T08:46:42.609Z,99.90
2022-10-22T08:47:56.252Z,99.90
2022-10-22T08:49:01.794Z,99.90
2022-10-22T08:50:04.739Z,99.90
2022-10-22T08:51:12.333Z,99.90
2022-10-22T08:52:17.571Z,99.90
2022-10-22T08:53:25.631Z,99.90
2022-10-22T08:54:51.870Z,99.90
2022-10-22T08:55:54.545Z,99.90
2022-10-22T08:57:22.790Z,99.90
2022-10-22T08:58:48.015Z,99.90
2022-10-22T09:00:12.114Z,99.90
2022-10-22T09:01:18.298Z,99.90
2022-10-22T09:02:41.601Z,99.90
2022-10-22T09:03:57.483Z,99.90
2022-10-22T09:05:14.427Z,99.90
2022-10-22T09:06:28.563Z,99.90
2022-10-22T09:07:30.886Z,99.90
2022-10-22T09:08:33.214Z,99.90
2022-10-22T09:09:43.613Z,99.90
2022-10-22T09:10:53.359Z,99.90
2022-10-22T09:12:00.037Z,99.90
2022-10-22T09:13:02.422Z,99.90
2022-10-22T09:14:05.757Z,99.90
2022-10-22T09:15:14.342Z,99.90
2022-10-22T09:16:30.518Z,99.90
2022-10-22T09:17:45.561Z,99.90
2022-10-22T09:18:59.688Z,99.90
2022-10-22T09:20:24.054Z,99.90
2022-10-22T09:21:26.131Z,99.90
2022-10-22T09:22:40.221Z,99.90
2022-10-22T09:23:53.232Z,99.90
2022-10-22T09:25:21.483Z,99.90
2022-10-22T09:26:23.746Z,99.90
2022-10-22T09:27:31.104Z,99.90
2022-10-22T09:28:33.149Z,99.90
2022-10-22T09:29:36.202Z,99.90
2022-10-22T09:30:40.522Z,99.90
2022-10-22T09:31:42.532Z,99.90
2022-10-22T09:32:44.905Z,99.90
2022-10-22T09:33:49.276Z,99.90
2022-10-22T09:34:56.759Z,99.90
2022-10-22T09:36:03.814Z,99.90
2022-10-22T09:37:09.271Z,99.90
2022-10-22T09:38:15.319Z,99.90
2022-10-22T09:39:26.641Z,99.90
2022-10-22T09:40:28.807Z,99.90
2022-10-22T09:41:31.188Z,99.90
2022-10-22T09:42:35.140Z,99.90
2022-10-22T09:43:37.256Z,99.90
2022-10-22T09:44:39.328Z,99.90
2022-10-22T09:45:42.125Z,99.90
2022-10-22T09:46:46.289Z,99.90
2022-10-22T09:48:03.983Z,99.90
2022-10-22T09:49:15.651Z,99.90
2022-10-22T09:50:41.540Z,99.90
2022-10-22T09:51:54.386Z,99.90
2022-10-22T09:53:14.732Z,99.90
2022-10-22T09:54:21.163Z,99.90
2022-10-22T09:55:25.550Z,99.90
2022-10-22T09:56:36.303Z,99.90
2022-10-22T09:57:40.937Z,99.90
2022-10-22T09:58:49.576Z,99.90
2022-10-22T09:59:54.438Z,99.90
2022-10-22T10:01:00.614Z,99.90
2022-10-22T10:02:19.918Z,99.90
2022-10-22T10:03:33.321Z,99.90
2022-10-22T10:04:48.470Z,99.90
2022-10-22T10:05:55.131Z,99.90
2022-10-22T10:06:57.610Z,99.90
2022-10-22T10:08:02.705Z,99.90
2022-10-22T10:09:13.578Z,99.90
2022-10-22T10:10:28.630Z,99.90
2022-10-22T10:11:42.919Z,99.90
2022-10-22T10:13:28.227Z,99.90
2022-10-22T10:14:33.034Z,99.90
2022-10-22T10:16:00.627Z,99.90
2022-10-22T10:17:09.102Z,99.90
2022-10-22T10:18:34.609Z,99.90
2022-10-22T10:19:47.322Z,99.90
2022-10-22T10:21:01.763Z,99.90
2022-10-22T10:22:27.120Z,99.90
2022-10-22T10:23:58.175Z,99.90
2022-10-22T10:25:28.552Z,99.90
2022-10-22T10:26:58.092Z,99.70
2022-10-22T10:28:16.820Z,99.70
2022-10-22T10:29:54.286Z,99.50
2022-10-22T10:31:14.183Z,99.00
2022-10-22T10:32:37.013Z,99.10
2022-10-22T10:33:54.277Z,99.00
2022-10-22T10:34:59.508Z,98.80
2022-10-22T10:36:05.976Z,98.50
2022-10-22T10:37:28.655Z,98.10
2022-10-22T10:38:57.103Z,97.60
2022-10-22T10:40:17.724Z,97.10
2022-10-22T10:41:50.420Z,96.80
2022-10-22T10:43:04.854Z,96.80
2022-10-22T10:44:15.844Z,97.10
2022-10-22T10:45:26.929Z,96.80
2022-10-22T10:46:42.066Z,93.50
2022-10-22T10:48:11.523Z,86.70
2022-10-22T10:49:35.079Z,70.70
2022-10-22T10:51:10.691Z,62.80
2022-10-22T10:52:27.746Z,58.70
2022-10-22T10:53:35.197Z,57.30
2022-10-22T10:54:47.032Z,55.60
2022-10-22T10:56:12.875Z,52.90
2022-10-22T10:57:55.410Z,50.40
2022-10-22T10:59:21.276Z,48.50
2022-10-22T11:00:23.946Z,47.70
2022-10-22T11:01:41.373Z,47.40
2022-10-22T11:03:01.679Z,46.20
2022-10-22T11:04:18.865Z,45.00
2022-10-22T11:05:54.688Z,45.40
2022-10-22T11:07:11.039Z,45.00
2022-10-22T11:08:33.114Z,44.70
2022-10-22T11:09:39.766Z,44.10
2022-10-22T11:10:47.796Z,43.50
2022-10-22T11:11:59.978Z,42.50
2022-10-22T11:13:14.407Z,42.30
2022-10-22T11:14:39.255Z,41.60
2022-10-22T11:15:44.384Z,41.30
2022-10-22T11:16:57.094Z,41.50
2022-10-22T11:18:20.530Z,41.40
2022-10-22T11:19:50.193Z,41.50
2022-10-22T11:21:27.607Z,42.60
2022-10-22T11:23:16.914Z,42.60
2022-10-22T11:24:14.174Z,43.40
2022-10-22T11:25:21.215Z,43.70
2022-10-22T11:26:54.207Z,43.70
2022-10-22T11:28:09.244Z,44.20
2022-10-22T11:29:22.808Z,45.10
2022-10-22T11:30:28.861Z,45.20
2022-10-22T11:31:33.572Z,45.90
2022-10-22T11:32:36.876Z,46.60
2022-10-22T11:34:04.657Z,47.00
2022-10-22T11:35:25.837Z,47.40
2022-10-22T11:36:29.529Z,47.70
2022-10-22T11:37:39.270Z,47.50
2022-10-22T11:38:42.040Z,47.40
2022-10-22T11:39:55.332Z,47.10
2022-10-22T11:41:02.081Z,47.10
2022-10-22T11:42:09.584Z,47.40
2022-10-22T11:43:26.272Z,47.90
2022-10-22T11:44:30.470Z,48.80
2022-10-22T11:45:42.941Z,49.10
2022-10-22T11:46:54.275Z,49.10
2022-10-22T11:48:11.616Z,49.20
2022-10-22T11:49:13.578Z,49.60
2022-10-22T11:50:27.381Z,49.80
2022-10-22T11:51:37.942Z,49.90
2022-10-22T11:52:47.781Z,49.70
2022-10-22T11:53:56.901Z,49.70
2022-10-22T11:55:03.977Z,49.80
2022-10-22T11:56:10.887Z,49.80
2022-10-22T11:57:15.420Z,49.70
2022-10-22T11:58:29.052Z,49.90
2022-10-22T11:59:40.008Z,49.90
2022-10-22T12:00:49.400Z,50.20
2022-10-22T12:01:56.365Z,50.20
2022-10-22T12:03:17.045Z,50.10
2022-10-22T12:04:22.299Z,49.90
2022-10-22T12:05:24.112Z,50.00
2022-10-22T12:06:27.614Z,49.90
2022-10-22T12:07:33.486Z,49.80
2022-10-22T12:08:44.246Z,49.40
2022-10-22T12:11:03.720Z,48.50
2022-10-22T12:12:15.164Z,48.20
2022-10-22T12:13:32.758Z,48.50
2022-10-22T12:14:51.143Z,48.40
2022-10-22T12:15:58.079Z,48.60
2022-10-22T12:17:10.461Z,49.00
2022-10-22T12:19:28.313Z,49.20
2022-10-22T12:20:30.517Z,49.40
2022-10-22T12:21:34.168Z,49.80
2022-10-22T12:22:38.141Z,50.00
2022-10-22T12:23:40.442Z,50.20
2022-10-22T12:24:46.001Z,50.40
2022-10-22T12:25:48.590Z,50.80
2022-10-22T12:26:52.976Z,51.00
2022-10-22T12:27:58.347Z,51.20
2022-10-22T12:29:02.126Z,51.70
2022-10-22T12:30:20.350Z,52.10
2022-10-22T12:31:22.591Z,52.10
2022-10-22T12:32:33.210Z,52.10
2022-10-22T12:33:38.785Z,52.70
2022-10-22T12:34:52.331Z,53.20
2022-10-22T12:35:58.011Z,53.70
2022-10-22T12:37:00.043Z,53.90
2022-10-22T12:38:08.533Z,54.20
2022-10-22T12:39:18.416Z,54.70
2022-10-22T12:40:26.184Z,55.00
2022-10-22T12:41:33.331Z,55.30
2022-10-22T12:42:35.617Z,55.60
2022-10-22T12:43:39.990Z,55.90
2022-10-22T12:44:43.304Z,56.60
2022-10-22T12:45:48.775Z,56.40
2022-10-22T12:46:54.455Z,56.70
2022-10-22T12:48:08.100Z,56.80
2022-10-22T12:49:22.967Z,56.80
2022-10-22T12:50:40.674Z,57.10
2022-10-22T12:51:43.284Z,57.30
2022-10-22T12:52:45.335Z,57.60
2022-10-22T12:53:51.166Z,57.90
2022-10-22T12:54:54.028Z,58.20
2022-10-22T12:56:00.561Z,58.40
2022-10-22T12:57:03.176Z,58.60
2022-10-22T12:58:07.349Z,58.70
2022-10-22T12:59:36.049Z,58.90
2022-10-22T13:00:39.530Z,59.00
2022-10-22T13:01:43.378Z,59.00
2022-10-22T13:02:45.856Z,58.90
2022-10-22T13:03:50.954Z,59.10
2022-10-22T13:05:15.487Z,59.40
2022-10-22T13:06:20.931Z,59.70
2022-10-22T13:07:22.719Z,60.00
2022-10-22T13:08:29.341Z,60.60
2022-10-22T13:09:44.659Z,61.20
2022-10-22T13:10:52.605Z,61.60
2022-10-22T13:11:59.659Z,62.10
2022-10-22T13:13:07.160Z,62.50
2022-10-22T13:14:36.244Z,62.90
2022-10-22T13:15:40.073Z,63.90
2022-10-22T13:16:42.121Z,63.60
2022-10-22T13:17:44.494Z,63.90
2022-10-22T13:18:48.647Z,64.20
2022-10-22T13:19:53.276Z,64.60
2022-10-22T13:21:04.350Z,64.80
2022-10-22T13:22:27.931Z,65.10
2022-10-22T13:23:33.348Z,65.40
2022-10-22T13:24:39.367Z,65.70
2022-10-22T13:25:41.389Z,66.00
2022-10-22T13:26:43.432Z,66.20
2022-10-22T13:27:47.797Z,66.40
2022-10-22T13:28:55.571Z,66.60
2022-10-22T13:30:03.189Z,67.00
2022-10-22T13:31:18.635Z,67.20
2022-10-22T13:32:32.836Z,67.50
2022-10-22T13:33:40.668Z,67.70
2022-10-22T13:34:44.734Z,67.90
2022-10-22T13:35:46.942Z,68.10
2022-10-22T13:36:49.131Z,68.40
2022-10-22T13:37:51.022Z,68.70
2022-10-22T13:38:53.216Z,68.90
2022-10-22T13:39:55.236Z,69.10
2022-10-22T13:40:57.809Z,69.30
2022-10-22T13:41:59.797Z,69.60
2022-10-22T13:43:01.745Z,69.80
2022-10-22T13:44:03.792Z,70.00
2022-10-22T13:45:06.634Z,70.30
2022-10-22T13:46:09.829Z,70.50
2022-10-22T13:47:26.863Z,70.80
2022-10-22T13:48:30.344Z,71.10
2022-10-22T13:49:32.592Z,71.50
2022-10-22T13:50:34.636Z,71.90
2022-10-22T13:51:36.765Z,72.30
2022-10-22T13:52:45.257Z,72.70
2022-10-22T13:53:48.962Z,73.20
2022-10-22T13:54:50.930Z,73.50
2022-10-22T13:55:53.263Z,73.80
2022-10-22T13:56:55.305Z,74.10
2022-10-22T13:58:06.698Z,74.10
2022-10-22T13:59:10.298Z,74.40
2022-10-22T14:00:17.957Z,74.60
2022-10-22T14:01:27.627Z,74.90
2022-10-22T14:02:29.930Z,75.10
2022-10-22T14:03:37.270Z,75.40
2022-10-22T14:04:41.974Z,75.60
2022-10-22T14:05:46.603Z,75.80
2022-10-22T14:06:48.696Z,76.80
2022-10-22T14:07:51.116Z,76.40
2022-10-22T14:09:01.000Z,76.70
2022-10-22T14:10:10.000Z,77.00
2022-10-22T14:11:13.008Z,77.50
2022-10-22T14:12:16.972Z,77.60
2022-10-22T14:13:20.345Z,77.90
2022-10-22T14:14:22.357Z,78.60
2022-10-22T14:15:28.247Z,78.20
2022-10-22T14:16:32.850Z,78.50
2022-10-22T14:17:34.860Z,78.80
2022-10-22T14:18:37.035Z,79.00
2022-10-22T14:19:39.572Z,79.10
2022-10-22T14:20:42.859Z,79.50
2022-10-22T14:21:45.026Z,79.90
2022-10-22T14:22:48.740Z,80.30
2022-10-22T14:23:52.904Z,80.80